CPM weather

Compton Woodley Airport
Compton, California, United States

Public forecast

Using degrees Fahrenheit for public forecast. Weather courtesy of forecast.io.

METAR (pilot weather report)

Closest report is Jack Northrop Field Hawthorne Municipal Airport, 4.9 nm (9.2 km) WNW. Retrieved 2019/07/18 22:53 UTC (26 minutes ago):

KHHR 182253Z 26010KT 10SM CLR 23/15 A2993 RMK AO2 SLP134 T02280150 $

TAF (pilot weather forecast)

Closest forecast is Long Beach /Daugherty Field/ Airport, 6.3 nm (11.7 km) SE. Retrieved 2019/07/18 18:22 UTC (5 hours ago):

TAF KLGB 181720Z 1818/1918 23004KT P6SM OVC016 FM181830 20008KT P6SM SCT017 FM190400 VRB03KT P6SM SKC FM190800 VRB03KT P6SM OVC014 FM191600 17005KT P6SM BKN016